MPH8592 EHAM-EPWA
Flight info
| Callsign | MPH8592 |
|---|---|
| Flight time | N/A |
| Altitude | 37000 |
| Route | ANDIK M105 OPWOT Z612 GESTO Z870 BKD L619 VIBIS DCT ALUKA L619 DENKO P851 BIMPA |
| Aircraft | MD11/H-SDE1E2E3FGHIJ2J3J4J5M1RWXY/LB1D1 |
Departure
| Time | 2026-04-30 14:51 |
|---|---|
| Airport | Amsterdam Airport Schiphol (EHAM) |
Arrival
| Time | N/A |
|---|---|
| Airport | Warsaw Chopin Airport (EPWA) |
| Time | Latitude | Longitude | Altitude | Speed | Heading |
|---|---|---|---|---|---|
| 2026-04-30 14:16 | 52.29472 | 4.76119 | 5 ft | 0 kts | 147° |
| 2026-04-30 14:37 | 52.29483 | 4.76107 | 32 ft | 4 kts | 147° |
| 2026-04-30 14:37 | 52.29506 | 4.76084 | 1 ft | 4 kts | 148° |
| 2026-04-30 14:38 | 52.29527 | 4.76063 | 6 ft | 4 kts | 149° |
| 2026-04-30 14:38 | 52.29547 | 4.76048 | 6 ft | 4 kts | 185° |
| 2026-04-30 14:38 | 52.29566 | 4.76058 | 7 ft | 4 kts | 230° |
| 2026-04-30 14:38 | 52.29581 | 4.76093 | 5 ft | 3 kts | 238° |
| 2026-04-30 14:39 | 52.29585 | 4.76104 | 4 ft | 0 kts | 238° |
| 2026-04-30 14:41 | 52.29582 | 4.76096 | 4 ft | 3 kts | 238° |
| 2026-04-30 14:41 | 52.29561 | 4.76041 | 4 ft | 9 kts | 238° |
| 2026-04-30 14:42 | 52.29519 | 4.75927 | 4 ft | 14 kts | 241° |
| 2026-04-30 14:42 | 52.29483 | 4.75760 | 6 ft | 18 kts | 244° |
| 2026-04-30 14:42 | 52.29439 | 4.75579 | 3 ft | 12 kts | 279° |
| 2026-04-30 14:42 | 52.29498 | 4.75496 | 2 ft | 14 kts | 325° |
| 2026-04-30 14:43 | 52.29590 | 4.75394 | 5 ft | 18 kts | 327° |
| 2026-04-30 14:43 | 52.29708 | 4.75290 | 5 ft | 22 kts | 344° |
| 2026-04-30 14:43 | 52.29839 | 4.75198 | 5 ft | 21 kts | 314° |
| 2026-04-30 14:43 | 52.29934 | 4.75022 | 5 ft | 21 kts | 311° |
| 2026-04-30 14:44 | 52.30030 | 4.74843 | 5 ft | 21 kts | 311° |
| 2026-04-30 14:44 | 52.30128 | 4.74662 | 5 ft | 21 kts | 311° |
| 2026-04-30 14:44 | 52.30227 | 4.74479 | 5 ft | 22 kts | 311° |
| 2026-04-30 14:44 | 52.30326 | 4.74294 | 5 ft | 22 kts | 311° |
| 2026-04-30 14:45 | 52.30457 | 4.74197 | 5 ft | 21 kts | 357° |
| 2026-04-30 14:45 | 52.30600 | 4.74207 | 5 ft | 20 kts | 3° |
| 2026-04-30 14:45 | 52.30739 | 4.74219 | 5 ft | 20 kts | 4° |
| 2026-04-30 14:45 | 52.30878 | 4.74234 | 5 ft | 20 kts | 4° |
| 2026-04-30 14:46 | 52.31017 | 4.74245 | 5 ft | 20 kts | 3° |
| 2026-04-30 14:46 | 52.31153 | 4.74258 | 5 ft | 19 kts | 2° |
| 2026-04-30 14:46 | 52.31288 | 4.74269 | 5 ft | 19 kts | 3° |
| 2026-04-30 14:46 | 52.31381 | 4.74323 | 5 ft | 11 kts | 60° |
| 2026-04-30 14:47 | 52.31394 | 4.74429 | 5 ft | 6 kts | 86° |
| 2026-04-30 14:47 | 52.31394 | 4.74437 | 5 ft | 0 kts | 86° |
| 2026-04-30 14:47 | 52.31394 | 4.74438 | 5 ft | 0 kts | 86° |
| 2026-04-30 14:48 | 52.31395 | 4.74456 | 5 ft | 3 kts | 86° |
| 2026-04-30 14:48 | 52.31398 | 4.74547 | 5 ft | 13 kts | 87° |
| 2026-04-30 14:48 | 52.31437 | 4.74655 | 5 ft | 10 kts | 26° |
| 2026-04-30 14:48 | 52.31509 | 4.74664 | 5 ft | 11 kts | 357° |
| 2026-04-30 14:49 | 52.31582 | 4.74661 | 7 ft | 9 kts | 2° |
| 2026-04-30 14:49 | 52.31643 | 4.74685 | 8 ft | 8 kts | 25° |
| 2026-04-30 14:49 | 52.31666 | 4.74742 | 7 ft | 5 kts | 78° |
| 2026-04-30 14:49 | 52.31666 | 4.74750 | 7 ft | 0 kts | 83° |
| 2026-04-30 14:51 | 52.31708 | 4.75935 | 5 ft | 141 kts | 87° |
| 2026-04-30 14:51 | 52.31791 | 4.77796 | 498 ft | 166 kts | 87° |
| 2026-04-30 14:51 | 52.31901 | 4.81429 | 2904 ft | 159 kts | 88° |
| 2026-04-30 14:52 | 52.32012 | 4.83259 | 3841 ft | 178 kts | 92° |
| 2026-04-30 14:52 | 52.32290 | 4.88111 | 4129 ft | 237 kts | 86° |
| 2026-04-30 14:52 | 52.32870 | 4.90730 | 4344 ft | 254 kts | 66° |
| 2026-04-30 14:53 | 52.34886 | 4.95623 | 5443 ft | 261 kts | 60° |
| 2026-04-30 14:53 | 52.35938 | 4.98033 | 6066 ft | 261 kts | 60° |
| 2026-04-30 14:54 | 52.38051 | 5.02879 | 7182 ft | 265 kts | 60° |
| 2026-04-30 14:54 | 52.40198 | 5.07815 | 8261 ft | 268 kts | 60° |
| 2026-04-30 14:55 | 52.42621 | 5.12536 | 9248 ft | 275 kts | 53° |
| 2026-04-30 14:55 | 52.43694 | 5.15072 | 9744 ft | 270 kts | 66° |
| 2026-04-30 14:55 | 52.45531 | 5.20840 | 10366 ft | 314 kts | 66° |
| 2026-04-30 14:56 | 52.47751 | 5.27502 | 11466 ft | 343 kts | 64° |
| 2026-04-30 14:56 | 52.50162 | 5.34385 | 13207 ft | 353 kts | 63° |
| 2026-04-30 14:57 | 52.51405 | 5.37889 | 14088 ft | 357 kts | 63° |
| 2026-04-30 14:57 | 52.53942 | 5.45015 | 15580 ft | 366 kts | 63° |
| 2026-04-30 14:58 | 52.56541 | 5.52318 | 17122 ft | 374 kts | 62° |
| 2026-04-30 14:58 | 52.57859 | 5.56032 | 17874 ft | 378 kts | 62° |
| 2026-04-30 14:58 | 52.60540 | 5.63597 | 19275 ft | 387 kts | 62° |
| 2026-04-30 14:59 | 52.63259 | 5.71292 | 20547 ft | 395 kts | 62° |
| 2026-04-30 15:00 | 52.67453 | 5.83211 | 22461 ft | 407 kts | 62° |
| 2026-04-30 15:00 | 52.70310 | 5.91364 | 23682 ft | 414 kts | 62° |
| 2026-04-30 15:01 | 52.73225 | 5.99713 | 24521 ft | 423 kts | 62° |
| 2026-04-30 15:01 | 52.74195 | 6.02497 | 24909 ft | 424 kts | 62° |
| 2026-04-30 15:01 | 52.77651 | 6.12432 | 26161 ft | 430 kts | 61° |
| 2026-04-30 15:02 | 52.79121 | 6.16674 | 26701 ft | 432 kts | 61° |
| 2026-04-30 15:02 | 52.80623 | 6.21013 | 27120 ft | 437 kts | 62° |
| 2026-04-30 15:03 | 52.85153 | 6.34251 | 28666 ft | 444 kts | 61° |
| 2026-04-30 15:03 | 52.88208 | 6.43276 | 29581 ft | 451 kts | 61° |
| 2026-04-30 15:04 | 52.91321 | 6.52421 | 30479 ft | 457 kts | 61° |
| 2026-04-30 15:04 | 52.96039 | 6.66282 | 31571 ft | 465 kts | 60° |
| 2026-04-30 15:05 | 53.00777 | 6.80274 | 32934 ft | 462 kts | 60° |
| 2026-04-30 15:06 | 53.03910 | 6.89574 | 33777 ft | 460 kts | 60° |
| 2026-04-30 15:06 | 53.07031 | 6.98875 | 34520 ft | 459 kts | 60° |
| 2026-04-30 15:07 | 53.10134 | 7.08155 | 35189 ft | 457 kts | 60° |
| 2026-04-30 15:07 | 53.13203 | 7.17434 | 35796 ft | 456 kts | 63° |
| 2026-04-30 15:08 | 53.15511 | 7.27205 | 36382 ft | 456 kts | 71° |
| 2026-04-30 15:08 | 53.18333 | 7.42306 | 37218 ft | 454 kts | 71° |
| 2026-04-30 15:09 | 53.20249 | 7.52390 | 37416 ft | 458 kts | 71° |
| 2026-04-30 15:10 | 53.24123 | 7.72537 | 37439 ft | 454 kts | 71° |
| 2026-04-30 15:11 | 53.29865 | 8.02679 | 37450 ft | 454 kts | 71° |
| 2026-04-30 15:13 | 53.34983 | 8.27672 | 37448 ft | 453 kts | 67° |
| 2026-04-30 15:14 | 53.39002 | 8.63276 | 37445 ft | 461 kts | 101° |
| 2026-04-30 15:17 | 53.31972 | 9.10159 | 37447 ft | 462 kts | 100° |
| 2026-04-30 15:19 | 53.25998 | 9.51895 | 37452 ft | 462 kts | 100° |